Time;durP1;ratioP1;P1;durP2;ratioP2;P2;SDS_P1;SDS_P2;PMS_P1;PMS_P2;Temp;Humidity;BMP_temperature;BMP_pressure;BME280_temperature;BME280_humidity;BME280_pressure;Samples;Min_cycle;Max_cycle;Signal;HPM_P1;HPM_P2
2023/04/22 00:00:12;;;;;;;16.02;12.77;;;;;;;;;;2028253;29;20040;-75
2023/04/22 00:01:33;;;;;;;22.05;12.88;;;;;;;;;;2034304;29;20511;-75
2023/04/22 00:02:55;;;;;;;20.55;12.55;;;;;;;;;;2036284;29;20044;-75
2023/04/22 00:04:15;;;;;;;19.42;12.80;;;;;;;;;;2039751;29;20143;-76
2023/04/22 00:05:36;;;;;;;19.63;12.10;;;;;;;;;;2031311;29;20496;-75
2023/04/22 00:06:57;;;;;;;22.95;12.77;;;;;;;;;;2033189;29;20096;-75
2023/04/22 00:08:18;;;;;;;19.17;13.30;;;;;;;;;;2035736;29;20412;-75
2023/04/22 00:09:39;;;;;;;19.58;12.02;;;;;;;;;;2038858;29;20059;-75
2023/04/22 00:11:01;;;;;;;23.40;14.48;;;;;;;;;;2029200;29;20629;-75
2023/04/22 00:12:22;;;;;;;20.65;12.75;;;;;;;;;;2035647;29;20050;-75
2023/04/22 00:13:43;;;;;;;19.17;12.77;;;;;;;;;;2036843;29;20334;-76
2023/04/22 00:15:04;;;;;;;18.85;12.65;;;;;;;;;;2038563;29;20044;-75
2023/04/22 00:16:26;;;;;;;19.57;12.33;;;;;;;;;;2028508;29;20049;-75
2023/04/22 00:17:47;;;;;;;25.63;13.43;;;;;;;;;;2034698;29;20512;-75
2023/04/22 00:19:08;;;;;;;25.35;14.60;;;;;;;;;;2037361;29;20791;-75
2023/04/22 00:20:31;;;;;;;22.60;13.90;;;;;;;;;;2037444;29;20051;-76
2023/04/22 00:21:52;;;;;;;19.75;13.07;;;;;;;;;;2030293;29;20032;-74
2023/04/22 00:23:13;;;;;;;16.85;11.98;;;;;;;;;;2033791;29;20047;-75
2023/04/22 00:24:34;;;;;;;15.82;12.60;;;;;;;;;;2036214;29;20032;-75
2023/04/22 00:25:55;;;;;;;23.00;14.15;;;;;;;;;;2035670;29;20036;-74
2023/04/22 00:27:16;;;;;;;22.25;14.25;;;;;;;;;;2035912;29;20040;-75
2023/04/22 00:28:37;;;;;;;23.80;14.50;;;;;;;;;;2027898;29;20040;-75
2023/04/22 00:29:58;;;;;;;20.20;12.77;;;;;;;;;;2034088;29;20126;-74
2023/04/22 00:31:19;;;;;;;23.13;13.15;;;;;;;;;;2036738;29;20463;-75
2023/04/22 00:32:39;;;;;;;19.95;13.73;;;;;;;;;;2028718;29;20032;-74
2023/04/22 00:34:00;;;;;;;27.13;14.77;;;;;;;;;;2033541;29;20031;-74
2023/04/22 00:35:21;;;;;;;23.83;14.27;;;;;;;;;;2036767;29;20448;-75
2023/04/22 00:36:42;;;;;;;25.17;13.48;;;;;;;;;;2037109;29;20115;-74
2023/04/22 00:38:03;;;;;;;18.73;13.23;;;;;;;;;;2036876;29;21176;-74
2023/04/22 00:39:24;;;;;;;22.17;14.35;;;;;;;;;;2037471;29;20114;-74
2023/04/22 00:40:45;;;;;;;18.45;13.57;;;;;;;;;;2036765;29;20180;-75
2023/04/22 00:42:06;;;;;;;31.13;14.75;;;;;;;;;;2032919;29;20103;-75
2023/04/22 00:43:27;;;;;;;23.17;15.05;;;;;;;;;;2037134;29;20106;-75
2023/04/22 00:44:50;;;;;;;23.70;14.65;;;;;;;;;;2034732;29;20424;-76
2023/04/22 00:46:10;;;;;;;29.10;15.00;;;;;;;;;;2036084;29;20048;-76
2023/04/22 00:47:32;;;;;;;27.20;15.30;;;;;;;;;;2027660;29;20060;-75
2023/04/22 00:48:53;;;;;;;21.13;13.55;;;;;;;;;;2033356;29;20020;-75
2023/04/22 00:50:14;;;;;;;27.90;16.05;;;;;;;;;;2036028;29;20072;-75
2023/04/22 00:51:35;;;;;;;21.80;13.93;;;;;;;;;;2038007;29;20400;-75
2023/04/22 00:52:55;;;;;;;22.58;13.40;;;;;;;;;;2036478;29;20537;-75
2023/04/22 00:54:16;;;;;;;20.65;13.75;;;;;;;;;;2038217;29;20042;-75
2023/04/22 00:55:37;;;;;;;24.60;14.35;;;;;;;;;;2035581;29;20040;-75
2023/04/22 00:56:58;;;;;;;18.50;12.75;;;;;;;;;;2037264;29;20040;-75
2023/04/22 00:58:20;;;;;;;21.00;13.00;;;;;;;;;;2038421;29;20040;-75
2023/04/22 00:59:41;;;;;;;21.25;13.73;;;;;;;;;;2038870;29;20064;-75
2023/04/22 01:01:02;;;;;;;22.88;14.05;;;;;;;;;;2029011;29;20583;-75
2023/04/22 01:02:23;;;;;;;17.52;12.32;;;;;;;;;;2036703;29;20139;-74
2023/04/22 03:57:20;;;;;;;;;;;;;;;;;;;;;
2023/04/22 05:23:19;;;;;;;25.25;15.73;;;;;;;;;;2025614;29;20409;-92
2023/04/22 05:24:40;;;;;;;27.05;16.05;;;;;;;;;;2009416;29;20046;-92
2023/04/22 05:26:01;;;;;;;30.58;14.90;;;;;;;;;;2007529;29;20030;-92
2023/04/22 05:27:22;;;;;;;26.42;15.98;;;;;;;;;;2020608;29;20028;-92
2023/04/22 05:28:43;;;;;;;26.90;15.82;;;;;;;;;;2019307;29;20044;-92
2023/04/22 05:30:05;;;;;;;25.13;15.45;;;;;;;;;;2011473;29;20068;-92
2023/04/22 05:31:26;;;;;;;27.50;17.17;;;;;;;;;;2025903;29;20036;-92
2023/04/22 05:32:47;;;;;;;24.17;14.98;;;;;;;;;;2014400;29;20044;-92
2023/04/22 05:34:07;;;;;;;25.42;15.85;;;;;;;;;;2019136;29;20151;-92
2023/04/22 05:35:50;;;;;;;26.95;15.70;;;;;;;;;;2017687;29;20037;-92
2023/04/22 05:37:11;;;;;;;27.48;15.90;;;;;;;;;;2015653;29;20021;-92
2023/04/22 05:38:32;;;;;;;25.55;15.63;;;;;;;;;;2015856;29;20036;-92
2023/04/22 05:39:53;;;;;;;23.17;16.17;;;;;;;;;;2026507;29;20483;-91
2023/04/22 05:41:14;;;;;;;23.85;15.70;;;;;;;;;;2030721;29;20043;-91
2023/04/22 05:43:08;;;;;;;24.92;15.95;;;;;;;;;;2017090;29;20528;-92
2023/04/22 05:44:29;;;;;;;29.48;16.23;;;;;;;;;;1987464;29;20058;-92
2023/04/22 05:45:49;;;;;;;26.05;15.32;;;;;;;;;;2015416;29;20032;-92
2023/04/22 05:47:13;;;;;;;28.02;16.08;;;;;;;;;;2016839;29;20029;-92
2023/04/22 05:48:34;;;;;;;27.40;15.50;;;;;;;;;;2020405;29;20048;-92
2023/04/22 05:49:54;;;;;;;26.23;16.05;;;;;;;;;;2022059;29;20044;-92
2023/04/22 05:51:15;;;;;;;29.23;16.88;;;;;;;;;;2016687;29;20037;-92
2023/04/22 05:52:36;;;;;;;31.60;16.90;;;;;;;;;;2015688;29;20045;-92
2023/04/22 05:53:57;;;;;;;27.30;17.15;;;;;;;;;;2014986;29;20029;-92
2023/04/22 05:55:18;;;;;;;25.10;16.75;;;;;;;;;;2017780;29;20059;-92
2023/04/22 05:56:39;;;;;;;27.13;16.67;;;;;;;;;;2018167;29;20093;-92
2023/04/22 05:58:00;;;;;;;20.48;15.45;;;;;;;;;;2017778;29;20033;-92
2023/04/22 05:59:21;;;;;;;28.42;16.73;;;;;;;;;;2014547;29;20033;-91
2023/04/22 06:00:42;;;;;;;35.45;18.48;;;;;;;;;;2010049;29;20045;-92
2023/04/22 06:02:03;;;;;;;31.83;17.33;;;;;;;;;;2003675;29;20058;-92
2023/04/22 06:03:24;;;;;;;24.58;15.07;;;;;;;;;;2015043;29;20239;-92
2023/04/22 06:04:45;;;;;;;24.35;16.40;;;;;;;;;;2014707;29;20033;-92
2023/04/22 06:06:06;;;;;;;31.92;16.75;;;;;;;;;;2014254;29;20037;-90
2023/04/22 06:07:27;;;;;;;27.23;17.20;;;;;;;;;;2018860;29;20040;-90
2023/04/22 06:08:48;;;;;;;35.33;17.80;;;;;;;;;;2022465;29;20028;-92
2023/04/22 06:10:11;;;;;;;29.95;18.85;;;;;;;;;;2018056;29;20497;-92
2023/04/22 06:11:32;;;;;;;27.73;17.05;;;;;;;;;;2017332;29;20025;-93
2023/04/22 06:12:53;;;;;;;30.40;16.20;;;;;;;;;;2017049;29;20077;-92
2023/04/22 06:14:14;;;;;;;26.45;17.13;;;;;;;;;;2017154;29;20496;-92
2023/04/22 06:15:35;;;;;;;25.48;16.05;;;;;;;;;;2023478;29;20025;-92
2023/04/22 06:16:56;;;;;;;30.85;18.05;;;;;;;;;;2029077;29;20483;-92
2023/04/22 06:18:17;;;;;;;27.30;17.42;;;;;;;;;;2020752;29;20489;-92
2023/04/22 06:19:38;;;;;;;33.28;18.05;;;;;;;;;;2015254;29;20044;-92
2023/04/22 06:21:02;;;;;;;26.90;17.52;;;;;;;;;;2019115;29;20056;-92
2023/04/22 06:22:22;;;;;;;28.27;17.17;;;;;;;;;;2015073;29;20060;-92
2023/04/22 06:23:44;;;;;;;30.40;17.15;;;;;;;;;;2019546;29;20040;-92
2023/04/22 06:25:05;;;;;;;34.70;21.08;;;;;;;;;;2016626;29;20033;-92
2023/04/22 06:26:26;;;;;;;37.17;19.95;;;;;;;;;;2017295;29;20029;-93
2023/04/22 06:27:47;;;;;;;37.67;22.40;;;;;;;;;;2019469;29;20029;-93
2023/04/22 06:29:08;;;;;;;34.40;21.48;;;;;;;;;;2017102;29;20033;-93
2023/04/22 06:30:29;;;;;;;36.20;21.05;;;;;;;;;;2018435;29;20141;-93
2023/04/22 06:31:52;;;;;;;36.28;21.27;;;;;;;;;;2015757;29;20063;-93
2023/04/22 06:33:13;;;;;;;35.45;22.55;;;;;;;;;;2021495;29;20032;-92
2023/04/22 06:34:34;;;;;;;34.03;21.98;;;;;;;;;;2017751;29;20033;-92
2023/04/22 06:35:55;;;;;;;35.67;21.95;;;;;;;;;;2017026;29;20025;-92
2023/04/22 06:37:15;;;;;;;37.38;23.42;;;;;;;;;;2017993;29;20029;-93
2023/04/22 06:38:36;;;;;;;39.47;23.58;;;;;;;;;;2023003;29;20033;-92
2023/04/22 06:39:57;;;;;;;38.53;21.58;;;;;;;;;;2016019;29;20089;-93
2023/04/22 06:41:20;;;;;;;39.47;22.10;;;;;;;;;;2016813;29;20036;-93
2023/04/22 06:42:41;;;;;;;34.53;20.95;;;;;;;;;;2015772;29;20045;-92
2023/04/22 06:44:02;;;;;;;37.65;23.60;;;;;;;;;;2022839;29;20040;-93
2023/04/22 06:45:23;;;;;;;40.42;22.67;;;;;;;;;;2019112;29;20044;-93
2023/04/22 06:46:45;;;;;;;33.35;21.75;;;;;;;;;;2018849;29;20085;-92
2023/04/22 06:48:06;;;;;;;41.22;23.65;;;;;;;;;;2018653;29;20477;-93
2023/04/22 06:49:27;;;;;;;37.90;23.10;;;;;;;;;;2016650;29;20037;-92
2023/04/22 06:50:48;;;;;;;40.35;23.13;;;;;;;;;;2015601;29;20045;-93
2023/04/22 06:52:08;;;;;;;42.38;22.58;;;;;;;;;;2019505;29;20020;-93
2023/04/22 06:53:29;;;;;;;38.20;21.05;;;;;;;;;;2008916;29;20446;-93
2023/04/22 06:54:50;;;;;;;40.25;21.92;;;;;;;;;;2008215;29;20052;-93
2023/04/22 06:56:11;;;;;;;44.90;22.25;;;;;;;;;;2009178;29;20038;-93
2023/04/22 06:57:32;;;;;;;37.53;20.30;;;;;;;;;;2014780;29;20040;-93
2023/04/22 06:58:53;;;;;;;35.97;20.35;;;;;;;;;;2018677;29;20062;-93
2023/04/22 07:00:15;;;;;;;34.05;19.05;;;;;;;;;;2018695;29;20040;-93
2023/04/22 07:01:35;;;;;;;31.98;18.65;;;;;;;;;;2018376;29;20037;-93
2023/04/22 07:02:56;;;;;;;35.67;18.95;;;;;;;;;;2014837;29;20048;-93
2023/04/22 07:04:17;;;;;;;32.35;18.60;;;;;;;;;;2019375;29;20036;-93
2023/04/22 07:05:39;;;;;;;32.33;17.92;;;;;;;;;;2018520;29;20109;-93
2023/04/22 07:06:59;;;;;;;32.90;16.88;;;;;;;;;;2018008;29;20509;-93
2023/04/22 07:08:20;;;;;;;30.95;17.15;;;;;;;;;;2015858;29;20048;-93
2023/04/22 07:09:41;;;;;;;27.60;17.23;;;;;;;;;;2008935;29;20033;-93
2023/04/22 07:11:02;;;;;;;28.65;18.10;;;;;;;;;;2008425;29;20082;-93
2023/04/22 07:12:24;;;;;;;26.77;16.05;;;;;;;;;;2012332;29;20037;-93
2023/04/22 07:13:45;;;;;;;28.08;16.65;;;;;;;;;;2023002;29;20040;-93
2023/04/22 07:15:06;;;;;;;29.27;18.02;;;;;;;;;;2018884;29;20040;-94
2023/04/22 07:16:27;;;;;;;28.17;16.33;;;;;;;;;;2014724;29;20041;-93
2023/04/22 07:17:48;;;;;;;27.38;16.33;;;;;;;;;;2019075;29;20027;-93
2023/04/22 07:19:09;;;;;;;30.75;17.63;;;;;;;;;;2017290;29;20045;-93
2023/04/22 07:20:30;;;;;;;25.63;15.80;;;;;;;;;;2018032;29;20063;-93
2023/04/22 07:21:53;;;;;;;30.13;17.48;;;;;;;;;;2017731;29;20124;-93
2023/04/22 07:23:14;;;;;;;23.05;14.60;;;;;;;;;;2015384;29;20037;-93
2023/04/22 07:24:36;;;;;;;25.70;16.15;;;;;;;;;;2015554;29;20029;-93
2023/04/22 07:25:57;;;;;;;24.55;15.50;;;;;;;;;;2016499;29;20029;-93
2023/04/22 07:27:18;;;;;;;24.52;15.30;;;;;;;;;;2015523;29;20367;-93
2023/04/22 07:28:39;;;;;;;24.17;15.18;;;;;;;;;;2018404;29;20040;-93
2023/04/22 07:30:00;;;;;;;23.73;14.45;;;;;;;;;;2013748;29;20041;-93
2023/04/22 07:31:20;;;;;;;24.85;13.90;;;;;;;;;;2022790;29;20052;-93
2023/04/22 07:32:41;;;;;;;32.47;15.57;;;;;;;;;;2020449;29;20484;-93
2023/04/22 07:34:02;;;;;;;27.58;15.43;;;;;;;;;;2017685;29;20156;-93
2023/04/22 07:35:23;;;;;;;25.38;15.63;;;;;;;;;;2018775;29;20044;-93
2023/04/22 07:36:44;;;;;;;25.50;15.15;;;;;;;;;;2008159;29;20116;-93
2023/04/22 07:38:05;;;;;;;25.70;16.70;;;;;;;;;;2016986;29;20051;-93
2023/04/22 07:39:26;;;;;;;27.30;14.95;;;;;;;;;;2017916;29;20033;-93
2023/04/22 07:40:47;;;;;;;22.67;14.57;;;;;;;;;;2018804;29;20036;-93
2023/04/22 07:42:08;;;;;;;23.70;15.10;;;;;;;;;;2017141;29;20026;-93
2023/04/22 07:43:29;;;;;;;23.33;14.07;;;;;;;;;;2019230;29;20040;-93
2023/04/22 07:44:50;;;;;;;19.95;13.02;;;;;;;;;;2014427;29;20036;-93
2023/04/22 07:46:11;;;;;;;23.73;14.30;;;;;;;;;;2016436;29;20033;-94
2023/04/22 07:47:35;;;;;;;25.48;15.13;;;;;;;;;;2015605;29;20037;-93
2023/04/22 07:48:56;;;;;;;26.33;13.23;;;;;;;;;;2015549;29;20100;-93
2023/04/22 07:50:16;;;;;;;22.48;13.07;;;;;;;;;;2013161;29;20421;-93
2023/04/22 07:51:37;;;;;;;20.23;12.50;;;;;;;;;;2015513;29;20033;-94
2023/04/22 07:52:59;;;;;;;24.67;14.88;;;;;;;;;;2015042;29;20041;-94
2023/04/22 07:54:20;;;;;;;22.08;12.82;;;;;;;;;;2019551;29;20029;-93
2023/04/22 07:55:41;;;;;;;21.65;12.98;;;;;;;;;;2019446;29;20044;-93
2023/04/22 07:57:02;;;;;;;22.45;12.50;;;;;;;;;;2018620;29;20037;-93
2023/04/22 07:58:23;;;;;;;24.40;13.90;;;;;;;;;;2017581;29;20033;-93
2023/04/22 07:59:44;;;;;;;26.20;14.20;;;;;;;;;;2017670;29;20063;-93
2023/04/22 08:01:05;;;;;;;24.42;13.68;;;;;;;;;;2018325;29;20040;-92
2023/04/22 08:02:26;;;;;;;25.02;14.10;;;;;;;;;;2013624;29;20037;-93
2023/04/22 08:03:46;;;;;;;22.23;12.95;;;;;;;;;;2014975;29;20036;-93
2023/04/22 08:05:07;;;;;;;23.52;13.70;;;;;;;;;;2015445;29;20401;-93
2023/04/22 08:06:28;;;;;;;21.27;14.25;;;;;;;;;;2017640;29;20032;-93
2023/04/22 08:07:49;;;;;;;20.75;13.05;;;;;;;;;;2017559;29;20037;-93
2023/04/22 08:09:10;;;;;;;27.67;14.93;;;;;;;;;;2019385;29;20524;-93
2023/04/22 08:10:31;;;;;;;24.85;15.07;;;;;;;;;;2014598;29;20097;-93
2023/04/22 08:11:53;;;;;;;24.30;13.68;;;;;;;;;;2015474;29;20066;-93
2023/04/22 08:13:14;;;;;;;22.27;14.27;;;;;;;;;;2018614;29;20041;-93
2023/04/22 08:14:38;;;;;;;22.45;13.48;;;;;;;;;;2011053;29;20120;-92
2023/04/22 08:15:59;;;;;;;23.27;13.05;;;;;;;;;;2010056;29;20034;-93
2023/04/22 08:17:20;;;;;;;20.48;13.25;;;;;;;;;;2020003;29;20092;-93
2023/04/22 08:18:41;;;;;;;24.13;14.10;;;;;;;;;;2018803;29;20052;-93
2023/04/22 08:20:03;;;;;;;24.20;13.70;;;;;;;;;;2016646;29;20448;-93
2023/04/22 08:21:24;;;;;;;25.30;13.43;;;;;;;;;;2018120;29;20400;-93
2023/04/22 08:22:45;;;;;;;21.58;13.80;;;;;;;;;;2017801;29;20516;-93
2023/04/22 08:24:06;;;;;;;22.77;13.00;;;;;;;;;;2016766;29;20033;-93
2023/04/22 08:25:28;;;;;;;18.25;11.55;;;;;;;;;;2015044;29;20040;-94
2023/04/22 08:26:49;;;;;;;22.63;13.43;;;;;;;;;;2017319;29;20033;-93
2023/04/22 08:28:10;;;;;;;18.42;11.85;;;;;;;;;;2022136;29;20284;-94
2023/04/22 08:29:32;;;;;;;15.13;10.80;;;;;;;;;;2022210;29;20049;-93
2023/04/22 08:30:53;;;;;;;19.30;12.40;;;;;;;;;;2018776;29;20044;-94
2023/04/22 08:32:14;;;;;;;19.67;12.35;;;;;;;;;;2017241;29;20512;-93
2023/04/22 08:33:35;;;;;;;22.67;12.50;;;;;;;;;;2016919;29;20036;-93
2023/04/22 08:34:56;;;;;;;22.02;13.93;;;;;;;;;;2008633;29;20034;-93
2023/04/22 08:36:17;;;;;;;20.27;12.32;;;;;;;;;;2009827;29;20041;-93
2023/04/22 08:37:39;;;;;;;18.48;11.73;;;;;;;;;;2022831;29;20039;-93
2023/04/22 08:39:00;;;;;;;23.98;13.05;;;;;;;;;;2017330;29;20240;-94
2023/04/22 08:40:21;;;;;;;23.92;13.40;;;;;;;;;;2018522;29;20033;-94
2023/04/22 08:41:43;;;;;;;21.02;13.45;;;;;;;;;;2017439;29;20029;-92
2023/04/22 08:43:04;;;;;;;21.38;12.95;;;;;;;;;;2015677;29;20029;-94
2023/04/22 08:44:25;;;;;;;20.38;12.20;;;;;;;;;;2014496;29;20032;-93
2023/04/22 08:45:46;;;;;;;20.40;13.20;;;;;;;;;;2016393;29;20428;-94
2023/04/22 08:47:08;;;;;;;19.33;10.82;;;;;;;;;;2014266;29;20542;-93
2023/04/22 08:48:31;;;;;;;19.17;11.57;;;;;;;;;;2015092;29;20021;-93
2023/04/22 08:49:53;;;;;;;22.05;12.70;;;;;;;;;;2018778;29;20040;-94
2023/04/22 08:51:15;;;;;;;21.90;12.23;;;;;;;;;;2017677;29;20497;-94
2023/04/22 08:52:36;;;;;;;22.17;13.80;;;;;;;;;;2009300;29;20029;-94
2023/04/22 08:53:57;;;;;;;18.13;11.15;;;;;;;;;;2012649;29;20037;-94
2023/04/22 08:55:21;;;;;;;16.33;10.02;;;;;;;;;;2017164;29;20033;-93
2023/04/22 08:56:43;;;;;;;16.95;10.02;;;;;;;;;;2017375;29;20033;-94
2023/04/22 08:58:04;;;;;;;16.70;10.18;;;;;;;;;;2016661;29;20513;-94
2023/04/22 08:59:26;;;;;;;16.88;11.02;;;;;;;;;;2015611;29;20026;-93
2023/04/22 09:00:47;;;;;;;17.45;11.10;;;;;;;;;;2017112;29;20055;-94
2023/04/22 09:02:12;;;;;;;17.60;10.93;;;;;;;;;;2017552;29;20029;-93
2023/04/22 09:03:37;;;;;;;16.95;11.20;;;;;;;;;;2021120;29;20103;-94
2023/04/22 09:05:00;;;;;;;13.70;9.10;;;;;;;;;;2016444;29;20025;-93
2023/04/22 09:06:21;;;;;;;17.40;10.07;;;;;;;;;;2018793;29;20045;-94
2023/04/22 09:08:10;;;;;;;16.42;9.70;;;;;;;;;;2013523;29;20044;-94
2023/04/22 09:09:31;;;;;;;18.90;11.15;;;;;;;;;;2018401;29;20532;-93
2023/04/22 09:10:52;;;;;;;16.88;10.10;;;;;;;;;;2014354;29;20048;-94
2023/04/22 09:12:13;;;;;;;15.18;8.60;;;;;;;;;;2016232;29;20366;-94
2023/04/22 09:13:34;;;;;;;19.13;10.25;;;;;;;;;;2014041;29;20484;-94
2023/04/22 09:14:55;;;;;;;14.48;9.45;;;;;;;;;;2013467;29;20034;-93
2023/04/22 09:16:36;;;;;;;17.90;9.90;;;;;;;;;;2022133;29;20375;-94
2023/04/22 09:17:57;;;;;;;17.02;9.55;;;;;;;;;;2017707;29;20052;-93
2023/04/22 09:19:31;;;;;;;15.57;10.10;;;;;;;;;;2015674;29;20037;-94
2023/04/22 09:20:54;;;;;;;16.92;10.00;;;;;;;;;;2017369;29;20033;-93
2023/04/22 09:22:15;;;;;;;16.05;8.82;;;;;;;;;;2018520;29;20045;-93
2023/04/22 09:23:45;;;;;;;16.42;9.52;;;;;;;;;;2017385;29;20056;-94
2023/04/22 09:25:41;;;;;;;16.05;9.57;;;;;;;;;;2022691;29;20055;-93
2023/04/22 09:27:02;;;;;;;16.83;10.70;;;;;;;;;;1987409;29;20067;-93
2023/04/22 09:28:23;;;;;;;13.55;9.25;;;;;;;;;;1978981;30;20039;-94
2023/04/22 09:29:48;;;;;;;17.73;9.52;;;;;;;;;;2015294;29;20036;-94
2023/04/22 09:31:13;;;;;;;15.63;9.35;;;;;;;;;;2017740;29;20135;-94
2023/04/22 09:32:34;;;;;;;12.32;8.63;;;;;;;;;;2017446;29;20036;-93
2023/04/22 09:33:56;;;;;;;17.50;9.73;;;;;;;;;;2016995;29;20041;-93
2023/04/22 09:35:46;;;;;;;14.85;10.20;;;;;;;;;;2020630;29;20029;-93
2023/04/22 09:37:07;;;;;;;13.38;10.00;;;;;;;;;;2017572;29;20101;-94
2023/04/22 09:38:29;;;;;;;15.75;10.48;;;;;;;;;;2010549;29;20409;-93
2023/04/22 09:39:50;;;;;;;14.80;10.27;;;;;;;;;;2016272;29;20033;-94
2023/04/22 09:41:11;;;;;;;15.15;9.75;;;;;;;;;;2022290;29;20039;-93
2023/04/22 09:42:46;;;;;;;16.25;9.93;;;;;;;;;;2019250;29;20029;-94
2023/04/22 09:44:08;;;;;;;14.65;9.13;;;;;;;;;;2014450;29;20033;-94
2023/04/22 09:45:33;;;;;;;16.02;9.85;;;;;;;;;;2008815;29;20084;-94
2023/04/22 09:46:53;;;;;;;12.25;9.23;;;;;;;;;;2011270;29;20389;-93
2023/04/22 09:48:16;;;;;;;11.95;8.68;;;;;;;;;;2012744;29;20417;-95
2023/04/22 09:49:40;;;;;;;13.52;8.90;;;;;;;;;;2020031;29;20560;-94
2023/04/22 09:51:01;;;;;;;16.17;9.98;;;;;;;;;;2018181;29;20040;-94
2023/04/22 09:52:27;;;;;;;14.82;9.52;;;;;;;;;;2017568;29;20095;-94
2023/04/22 09:53:58;;;;;;;12.88;8.88;;;;;;;;;;2021305;29;20052;-94
2023/04/22 09:55:20;;;;;;;13.60;9.48;;;;;;;;;;2010975;29;20041;-94
2023/04/22 09:56:43;;;;;;;15.25;9.30;;;;;;;;;;2011620;29;20409;-94
2023/04/22 09:58:26;;;;;;;12.32;8.27;;;;;;;;;;2012473;29;20029;-94
2023/04/22 09:59:51;;;;;;;18.42;10.20;;;;;;;;;;2019485;29;20036;-94
2023/04/22 10:01:12;;;;;;;14.07;9.27;;;;;;;;;;2025732;29;20024;-94
2023/04/22 10:02:33;;;;;;;17.05;9.90;;;;;;;;;;2019874;29;20660;-94
2023/04/22 10:03:54;;;;;;;17.80;9.65;;;;;;;;;;2018056;29;20033;-94
2023/04/22 10:05:16;;;;;;;13.70;9.23;;;;;;;;;;2017226;29;20486;-94
2023/04/22 10:06:37;;;;;;;15.85;9.18;;;;;;;;;;2009704;29;20037;-94
2023/04/22 10:07:58;;;;;;;16.98;9.90;;;;;;;;;;2011399;29;20030;-94
2023/04/22 10:09:22;;;;;;;15.77;9.40;;;;;;;;;;2014171;29;20033;-95
2023/04/22 10:10:43;;;;;;;15.45;9.68;;;;;;;;;;2021116;29;20033;-94
2023/04/22 10:12:07;;;;;;;12.48;8.15;;;;;;;;;;2019733;29;20025;-94
2023/04/22 10:13:28;;;;;;;12.95;8.77;;;;;;;;;;2018338;29;20066;-94
2023/04/22 10:14:49;;;;;;;12.73;8.60;;;;;;;;;;2017543;29;20367;-94
2023/04/22 10:16:10;;;;;;;14.05;9.30;;;;;;;;;;2019874;29;20033;-95
2023/04/22 10:17:32;;;;;;;16.60;10.20;;;;;;;;;;2017770;29;20093;-94
2023/04/22 10:18:55;;;;;;;17.98;10.27;;;;;;;;;;2012525;29;20429;-94
2023/04/22 10:20:17;;;;;;;18.77;9.95;;;;;;;;;;2017167;29;20041;-94
2023/04/22 10:21:38;;;;;;;;;;;;;;;;;;2018008;29;20109;-94
2023/04/22 10:23:03;;;;;;;21.15;11.27;;;;;;;;;;2016743;29;19928;-94
2023/04/22 10:24:25;;;;;;;16.10;10.75;;;;;;;;;;2018651;29;20036;-94
2023/04/22 10:25:48;;;;;;;16.75;9.70;;;;;;;;;;2019226;29;20044;-94
2023/04/22 10:27:09;;;;;;;17.73;9.48;;;;;;;;;;2020704;29;20033;-94
2023/04/22 10:28:30;;;;;;;18.33;9.90;;;;;;;;;;2017550;29;20109;-94
2023/04/22 10:29:51;;;;;;;15.02;9.25;;;;;;;;;;2019882;29;20354;-94
2023/04/22 10:31:22;;;;;;;14.30;9.45;;;;;;;;;;2019180;29;20033;-94
2023/04/22 10:32:43;;;;;;;16.30;9.23;;;;;;;;;;2019455;29;20056;-93
2023/04/22 10:34:13;;;;;;;19.75;10.30;;;;;;;;;;2015746;29;20048;-94
2023/04/22 10:35:34;;;;;;;16.15;9.30;;;;;;;;;;2023046;29;20021;-94
2023/04/22 10:36:58;;;;;;;16.60;9.05;;;;;;;;;;2019162;29;20409;-94
2023/04/22 10:38:20;;;;;;;16.15;8.65;;;;;;;;;;2016827;29;20536;-94
2023/04/22 10:39:41;;;;;;;14.10;8.55;;;;;;;;;;2019422;29;20359;-94
2023/04/22 10:41:02;;;;;;;14.65;8.95;;;;;;;;;;2019637;29;20056;-94
2023/04/22 10:42:27;;;;;;;17.38;9.90;;;;;;;;;;2018663;29;20029;-94
2023/04/22 10:43:54;;;;;;;14.77;9.43;;;;;;;;;;2015555;29;20045;-94
2023/04/22 10:45:15;;;;;;;18.27;9.65;;;;;;;;;;2019185;29;20029;-94
2023/04/22 10:46:41;;;;;;;14.85;9.32;;;;;;;;;;2019331;29;20037;-94
2023/04/22 10:48:03;;;;;;;15.82;10.68;;;;;;;;;;2017502;29;20052;-94
2023/04/22 10:49:24;;;;;;;;;;;;;;;;;;2013985;29;20033;-94
2023/04/22 10:50:45;;;;;;;15.57;10.07;;;;;;;;;;2026641;29;19911;-95
2023/04/22 10:52:07;;;;;;;14.27;9.23;;;;;;;;;;2013286;29;20025;-94
2023/04/22 10:53:34;;;;;;;14.13;9.38;;;;;;;;;;2023442;29;20062;-93
2023/04/22 10:54:56;;;;;;;18.33;10.93;;;;;;;;;;2019187;29;20033;-94
2023/04/22 10:56:18;;;;;;;15.40;9.77;;;;;;;;;;2021917;29;20512;-94
2023/04/22 10:57:40;;;;;;;12.15;8.15;;;;;;;;;;2027550;29;20044;-95
2023/04/22 10:59:14;;;;;;;14.93;9.40;;;;;;;;;;2020871;29;20041;-94
2023/04/22 11:00:39;;;;;;;16.05;8.57;;;;;;;;;;2019155;29;20041;-94
2023/04/22 11:02:01;;;;;;;16.70;9.68;;;;;;;;;;2013347;29;20045;-94
2023/04/22 11:03:28;;;;;;;21.40;10.48;;;;;;;;;;2017899;29;20045;-94
2023/04/22 11:04:53;;;;;;;15.40;8.73;;;;;;;;;;2016550;29;20044;-94
2023/04/22 11:06:15;;;;;;;12.88;8.52;;;;;;;;;;2018678;29;20036;-94
2023/04/22 11:07:36;;;;;;;16.85;9.00;;;;;;;;;;2018833;29;20040;-94
2023/04/22 11:09:09;;;;;;;15.48;8.60;;;;;;;;;;2016392;29;20037;-95
2023/04/22 11:10:30;;;;;;;17.42;8.27;;;;;;;;;;2022162;29;20044;-94
2023/04/22 11:11:51;;;;;;;13.65;9.15;;;;;;;;;;2015337;29;20044;-93
2023/04/22 11:13:14;;;;;;;22.20;11.30;;;;;;;;;;2018446;29;20068;-94
2023/04/22 11:14:35;;;;;;;13.55;8.15;;;;;;;;;;2018800;29;20033;-94
2023/04/22 11:15:56;;;;;;;17.42;8.30;;;;;;;;;;2018501;29;20409;-94
2023/04/22 11:17:18;;;;;;;12.40;7.60;;;;;;;;;;2009498;29;20048;-94
2023/04/22 11:18:39;;;;;;;13.18;7.85;;;;;;;;;;2011575;29;20038;-94
2023/04/22 11:20:00;;;;;;;16.08;8.38;;;;;;;;;;2012819;29;20090;-93
2023/04/22 11:21:21;;;;;;;14.60;7.70;;;;;;;;;;2018648;29;20041;-94
2023/04/22 11:22:43;;;;;;;14.02;8.48;;;;;;;;;;2019599;29;20045;-94
2023/04/22 11:24:08;;;;;;;15.43;8.55;;;;;;;;;;2017299;29;20045;-94
2023/04/22 11:25:29;;;;;;;15.32;8.05;;;;;;;;;;2017634;29;20037;-94
2023/04/22 11:26:54;;;;;;;13.38;7.70;;;;;;;;;;2017657;29;20045;-94
2023/04/22 11:28:15;;;;;;;16.17;8.00;;;;;;;;;;2016467;29;20504;-95
2023/04/22 11:29:36;;;;;;;15.85;8.15;;;;;;;;;;2018630;29;20025;-94
2023/04/22 11:31:00;;;;;;;13.75;7.60;;;;;;;;;;2019239;29;20028;-94
2023/04/22 11:32:21;;;;;;;15.48;8.65;;;;;;;;;;2023892;29;20029;-94
2023/04/22 11:33:42;;;;;;;11.85;7.60;;;;;;;;;;2017803;29;20037;-93
2023/04/22 11:35:05;;;;;;;13.93;8.20;;;;;;;;;;2018757;29;20049;-94
2023/04/22 11:36:26;;;;;;;11.98;7.78;;;;;;;;;;2018496;29;20488;-94
2023/04/22 11:37:47;;;;;;;13.55;7.70;;;;;;;;;;2015406;29;20115;-95
2023/04/22 11:39:08;;;;;;;12.18;7.78;;;;;;;;;;2018436;29;20408;-94
2023/04/22 11:40:39;;;;;;;12.60;7.45;;;;;;;;;;2021556;29;20534;-94
2023/04/22 11:42:01;;;;;;;13.75;8.40;;;;;;;;;;2010668;29;20048;-94
2023/04/22 11:43:22;;;;;;;13.27;8.00;;;;;;;;;;2008603;29;20048;-94
2023/04/22 11:44:43;;;;;;;13.75;8.00;;;;;;;;;;2016506;29;20037;-95
2023/04/22 11:46:04;;;;;;;14.20;8.20;;;;;;;;;;2014568;29;20041;-95
2023/04/22 11:47:28;;;;;;;11.45;7.18;;;;;;;;;;2019243;29;20232;-94
2023/04/22 11:48:48;;;;;;;15.98;8.43;;;;;;;;;;2016568;29;20029;-95
2023/04/22 11:50:11;;;;;;;17.50;9.13;;;;;;;;;;2016851;29;20143;-95
2023/04/22 11:51:31;;;;;;;;;;;;;;;;;;2019484;29;20458;-94
2023/04/22 11:52:56;;;;;;;15.82;8.57;;;;;;;;;;2028147;29;20366;-93
2023/04/22 11:54:27;;;;;;;15.35;8.55;;;;;;;;;;2022408;29;20044;-94
2023/04/22 11:55:52;;;;;;;16.63;9.15;;;;;;;;;;2014931;29;20029;-94
2023/04/22 11:57:15;;;;;;;16.23;9.05;;;;;;;;;;2024130;29;20042;-94
2023/04/22 11:58:37;;;;;;;20.63;9.60;;;;;;;;;;2020185;29;20135;-94
2023/04/22 11:59:58;;;;;;;21.42;9.32;;;;;;;;;;2020863;29;20454;-93
2023/04/22 12:01:19;;;;;;;17.85;8.93;;;;;;;;;;2019353;29;20026;-94
2023/04/22 12:02:40;;;;;;;16.02;8.85;;;;;;;;;;2016598;29;20035;-94
2023/04/22 12:04:02;;;;;;;22.63;9.25;;;;;;;;;;2015166;29;20045;-94
2023/04/22 12:05:33;;;;;;;18.40;10.73;;;;;;;;;;2021612;29;20062;-94
2023/04/22 12:06:54;;;;;;;13.88;9.02;;;;;;;;;;2010158;29;20041;-93
2023/04/22 12:08:17;;;;;;;11.45;7.68;;;;;;;;;;2009555;29;20037;-94
2023/04/22 12:09:38;;;;;;;15.38;8.95;;;;;;;;;;2015563;29;20033;-94
2023/04/22 12:11:03;;;;;;;15.50;9.15;;;;;;;;;;2017894;29;20045;-94
2023/04/22 12:12:25;;;;;;;16.65;9.43;;;;;;;;;;2017743;29;20033;-93
2023/04/22 12:13:46;;;;;;;15.18;9.55;;;;;;;;;;2014762;29;20126;-94
2023/04/22 12:15:10;;;;;;;16.38;10.35;;;;;;;;;;2024418;29;20029;-94
2023/04/22 12:16:40;;;;;;;16.42;9.23;;;;;;;;;;2017185;29;20035;-93
2023/04/22 12:18:01;;;;;;;19.10;11.15;;;;;;;;;;2022058;29;20045;-94
2023/04/22 12:19:25;;;;;;;16.33;9.38;;;;;;;;;;2014168;29;20160;-94
2023/04/22 12:20:46;;;;;;;18.73;9.98;;;;;;;;;;2016583;29;20085;-94